createdAt,value
2024-01-05T00:00:18.933Z,2.56
2024-01-05T00:02:46.828Z,2.74
2024-01-05T00:05:14.812Z,2.62
2024-01-05T00:07:42.515Z,2.62
2024-01-05T00:10:10.417Z,2.92
2024-01-05T00:12:38.224Z,2.92
2024-01-05T00:15:06.552Z,3.06
2024-01-05T00:17:34.546Z,2.83
2024-01-05T00:20:02.418Z,2.39
2024-01-05T00:22:30.178Z,2.70
2024-01-05T00:24:57.926Z,3.09
2024-01-05T00:27:25.840Z,2.72
2024-01-05T00:29:53.751Z,1.62
2024-01-05T00:32:21.532Z,2.27
2024-01-05T00:34:49.430Z,2.31
2024-01-05T00:37:17.209Z,2.33
2024-01-05T00:39:46.225Z,2.95
2024-01-05T00:42:14.097Z,2.60
2024-01-05T00:44:44.036Z,2.79
2024-01-05T00:47:12.550Z,2.76
2024-01-05T00:49:41.502Z,2.57
2024-01-05T00:52:11.048Z,2.71
2024-01-05T00:54:39.162Z,2.86
2024-01-05T00:57:09.167Z,3.07
2024-01-05T00:59:38.421Z,2.87
2024-01-05T01:02:06.165Z,2.80
2024-01-05T01:04:34.026Z,2.61
2024-01-05T01:07:01.836Z,2.51
2024-01-05T01:09:29.718Z,2.62
2024-01-05T01:11:57.536Z,2.77
2024-01-05T01:14:25.339Z,2.50
2024-01-05T01:16:53.108Z,2.35
2024-01-05T01:19:21.036Z,2.54
2024-01-05T01:21:48.908Z,2.84
2024-01-05T01:24:16.739Z,2.99
2024-01-05T01:26:44.865Z,2.39
2024-01-05T01:29:12.773Z,2.78
2024-01-05T01:31:40.600Z,2.71
2024-01-05T01:34:08.470Z,2.44
2024-01-05T01:36:36.308Z,2.16
2024-01-05T01:39:06.094Z,1.94
2024-01-05T01:41:34.076Z,1.99
2024-01-05T01:44:01.856Z,2.13
2024-01-05T01:46:30.330Z,1.87
2024-01-05T01:48:58.230Z,2.00
2024-01-05T01:51:26.191Z,1.90
2024-01-05T01:53:53.936Z,2.18
2024-01-05T01:56:21.976Z,2.35
2024-01-05T01:58:49.714Z,2.86
2024-01-05T02:01:17.593Z,2.01
2024-01-05T02:03:45.509Z,2.12
2024-01-05T02:06:13.434Z,2.36
2024-01-05T02:08:41.237Z,1.88
2024-01-05T02:11:09.038Z,2.27
2024-01-05T02:13:36.778Z,2.42
2024-01-05T02:16:04.763Z,2.02
2024-01-05T02:18:32.621Z,1.92
2024-01-05T02:21:01.307Z,1.81
2024-01-05T02:23:29.240Z,2.29
2024-01-05T02:25:57.068Z,1.83
2024-01-05T02:28:25.262Z,2.06
2024-01-05T02:30:56.875Z,1.63
2024-01-05T02:33:25.431Z,1.80
2024-01-05T02:35:53.481Z,1.85
2024-01-05T02:38:21.319Z,1.67
2024-01-05T02:40:49.110Z,1.59
2024-01-05T02:43:16.872Z,1.93
2024-01-05T02:45:44.852Z,1.87
2024-01-05T02:48:12.761Z,1.59
2024-01-05T02:50:40.655Z,1.66
2024-01-05T02:53:08.379Z,1.69
2024-01-05T02:55:36.198Z,1.89
2024-01-05T02:58:04.105Z,1.77
2024-01-05T03:00:32.052Z,1.75
2024-01-05T03:02:59.914Z,1.47
2024-01-05T03:05:27.726Z,1.80
2024-01-05T03:07:55.448Z,1.65
2024-01-05T03:10:23.274Z,1.82
2024-01-05T03:12:52.877Z,1.36
2024-01-05T03:15:20.737Z,1.78
2024-01-05T03:17:49.532Z,1.88
2024-01-05T03:20:18.878Z,1.41
2024-01-05T03:22:46.726Z,1.75
2024-01-05T03:25:14.571Z,1.64
2024-01-05T03:27:42.257Z,1.79
2024-01-05T03:30:10.322Z,1.36
2024-01-05T03:32:38.235Z,1.25
2024-01-05T03:35:06.547Z,1.30
2024-01-05T03:37:34.304Z,1.03
2024-01-05T03:40:02.223Z,1.52
2024-01-05T03:42:30.007Z,1.19
2024-01-05T03:44:57.970Z,1.52
2024-01-05T03:47:25.849Z,1.54
2024-01-05T03:49:53.718Z,1.27
2024-01-05T03:52:21.590Z,1.40
2024-01-05T03:54:49.462Z,1.20
2024-01-05T03:57:17.239Z,1.70
2024-01-05T03:59:45.036Z,1.78
2024-01-05T04:02:12.834Z,1.48
2024-01-05T04:04:41.060Z,2.19
2024-01-05T04:07:08.903Z,2.00
2024-01-05T04:09:36.769Z,1.56
2024-01-05T04:12:04.806Z,1.11
2024-01-05T04:14:32.637Z,1.20
2024-01-05T04:17:00.429Z,1.23
2024-01-05T04:19:31.127Z,1.53
2024-01-05T04:21:59.251Z,1.68
2024-01-05T04:24:26.987Z,1.50
2024-01-05T04:26:54.786Z,1.67
2024-01-05T04:29:22.466Z,2.00
2024-01-05T04:31:50.826Z,1.86
2024-01-05T04:34:18.952Z,1.70
2024-01-05T04:36:47.204Z,1.78
2024-01-05T04:39:15.210Z,1.38
2024-01-05T04:41:43.024Z,1.67
2024-01-05T04:44:10.822Z,2.07
2024-01-05T04:46:38.548Z,2.02
2024-01-05T04:49:06.302Z,1.91
2024-01-05T04:51:35.633Z,1.92
2024-01-05T04:54:04.851Z,2.01
2024-01-05T04:56:32.661Z,2.15
2024-01-05T04:59:00.365Z,2.05
2024-01-05T05:01:28.224Z,1.59
2024-01-05T05:03:56.035Z,1.67
2024-01-05T05:06:23.887Z,1.63
2024-01-05T05:08:51.920Z,1.69
2024-01-05T05:11:19.772Z,1.59
2024-01-05T05:13:47.515Z,1.90
2024-01-05T05:16:15.272Z,1.99
2024-01-05T05:18:43.219Z,1.63
2024-01-05T05:21:11.172Z,1.69
2024-01-05T05:23:38.980Z,1.53
2024-01-05T05:26:07.035Z,1.74
2024-01-05T05:28:34.734Z,2.14
2024-01-05T05:31:02.676Z,1.80
2024-01-05T05:33:30.635Z,1.67
2024-01-05T05:35:58.961Z,2.08
2024-01-05T05:38:26.734Z,2.00
2024-01-05T05:40:55.177Z,1.86
2024-01-05T05:43:22.918Z,2.12
2024-01-05T05:45:50.858Z,1.94
2024-01-05T05:48:19.025Z,2.08
2024-01-05T05:50:46.850Z,2.01
2024-01-05T05:53:14.633Z,1.82
2024-01-05T05:55:42.403Z,1.64
2024-01-05T05:58:10.137Z,1.41
2024-01-05T06:00:38.163Z,1.69
2024-01-05T06:03:08.422Z,1.84
2024-01-05T06:05:36.993Z,2.07
2024-01-05T06:08:05.312Z,1.80
2024-01-05T06:10:33.075Z,1.56
2024-01-05T06:13:00.864Z,1.63
2024-01-05T06:15:28.716Z,1.78
2024-01-05T06:17:56.570Z,1.96
2024-01-05T06:20:24.540Z,2.05
2024-01-05T06:22:52.474Z,1.78
2024-01-05T06:25:20.738Z,2.04
2024-01-05T06:27:48.850Z,2.12
2024-01-05T06:30:16.914Z,2.09
2024-01-05T06:32:44.733Z,2.30
2024-01-05T06:35:14.517Z,2.83
2024-01-05T06:37:42.295Z,3.17
2024-01-05T06:40:10.351Z,3.31
2024-01-05T06:42:38.366Z,3.01
2024-01-05T06:45:06.938Z,3.44
2024-01-05T06:47:34.742Z,3.61
2024-01-05T06:50:02.856Z,4.06
2024-01-05T06:52:31.313Z,4.23
2024-01-05T06:55:00.754Z,4.29
2024-01-05T06:57:31.004Z,2.87
2024-01-05T06:59:59.045Z,3.81
2024-01-05T07:02:26.744Z,3.83
2024-01-05T07:04:54.538Z,4.19
2024-01-05T07:07:22.334Z,3.99
2024-01-05T07:09:50.123Z,4.69
2024-01-05T07:12:18.032Z,5.09
2024-01-05T07:14:45.945Z,5.29
2024-01-05T07:17:13.731Z,5.40
2024-01-05T07:19:42.041Z,5.35
2024-01-05T07:22:09.914Z,5.40
2024-01-05T07:24:38.646Z,5.37
2024-01-05T07:27:06.684Z,5.81
2024-01-05T07:29:34.480Z,5.92
2024-01-05T07:32:02.494Z,5.70
2024-01-05T07:34:30.329Z,6.15
2024-01-05T07:36:58.178Z,6.27
2024-01-05T07:39:28.401Z,6.47
2024-01-05T07:41:56.284Z,6.13
2024-01-05T07:44:24.060Z,6.54
2024-01-05T07:46:51.969Z,6.63
2024-01-05T07:49:19.828Z,6.96
2024-01-05T07:51:47.941Z,7.25
2024-01-05T07:54:16.103Z,7.56
2024-01-05T07:56:43.996Z,7.89
2024-01-05T07:59:11.742Z,8.44
2024-01-05T08:01:39.677Z,8.88
2024-01-05T08:04:07.589Z,9.55
2024-01-05T08:06:35.458Z,9.60
2024-01-05T08:09:04.086Z,10.19
2024-01-05T08:11:31.818Z,10.16
2024-01-05T08:13:59.531Z,9.98
2024-01-05T08:16:27.246Z,9.24
2024-01-05T08:18:55.034Z,8.84
2024-01-05T08:21:22.950Z,9.28
2024-01-05T08:23:50.656Z,9.31
2024-01-05T08:26:19.220Z,9.38
2024-01-05T08:28:47.116Z,9.38
2024-01-05T08:31:14.998Z,9.16
2024-01-05T08:33:42.924Z,9.59
2024-01-05T08:36:10.729Z,10.04
2024-01-05T08:38:38.504Z,10.85
2024-01-05T08:41:06.239Z,11.95
2024-01-05T08:43:37.110Z,13.15
2024-01-05T08:46:06.588Z,14.30
2024-01-05T08:48:34.516Z,15.13
2024-01-05T08:51:02.469Z,16.08
2024-01-05T08:53:30.329Z,16.37
2024-01-05T08:55:58.180Z,17.03
2024-01-05T08:58:26.159Z,17.66
2024-01-05T09:00:53.965Z,18.30
2024-01-05T09:03:21.931Z,18.86
2024-01-05T09:05:49.807Z,18.63
2024-01-05T09:08:17.632Z,19.63
2024-01-05T09:10:45.451Z,20.46
2024-01-05T09:13:13.314Z,21.24
2024-01-05T09:15:41.100Z,21.66
2024-01-05T09:18:09.762Z,22.48
2024-01-05T09:23:07.505Z,22.79
2024-01-05T09:25:39.347Z,22.27
2024-01-05T09:28:08.403Z,22.37
2024-01-05T09:30:36.296Z,21.77
2024-01-05T09:33:05.192Z,21.89
2024-01-05T09:35:33.519Z,20.96
2024-01-05T09:38:01.362Z,20.19
2024-01-05T09:40:29.195Z,19.82
2024-01-05T09:42:58.861Z,18.61
2024-01-05T09:45:27.093Z,18.15
2024-01-05T09:47:56.484Z,15.90
2024-01-05T09:50:24.616Z,13.52
2024-01-05T09:52:52.371Z,15.17
2024-01-05T09:55:20.233Z,14.27
2024-01-05T09:57:47.984Z,14.88
2024-01-05T10:00:16.354Z,14.74
2024-01-05T10:02:51.357Z,14.30
2024-01-05T10:05:19.264Z,14.66
2024-01-05T10:07:47.169Z,13.64
2024-01-05T10:10:15.054Z,13.81
2024-01-05T10:12:43.003Z,13.98
2024-01-05T10:15:13.154Z,14.17
2024-01-05T10:17:41.054Z,13.98
2024-01-05T10:20:18.197Z,14.09
2024-01-05T10:22:48.115Z,14.06
2024-01-05T10:25:23.152Z,13.82
2024-01-05T10:27:56.144Z,13.80
2024-01-05T10:30:26.239Z,13.92
2024-01-05T10:33:08.122Z,13.91
2024-01-05T10:35:36.917Z,13.92
2024-01-05T10:38:09.850Z,13.20
2024-01-05T10:40:37.587Z,13.93
2024-01-05T10:43:15.827Z,13.93
2024-01-05T10:45:44.230Z,14.07
2024-01-05T10:48:14.936Z,14.08
2024-01-05T10:50:44.837Z,14.42
2024-01-05T10:53:12.792Z,14.09
2024-01-05T10:55:41.136Z,13.79
2024-01-05T10:58:09.262Z,13.48
2024-01-05T11:00:37.701Z,13.66
2024-01-05T11:03:12.478Z,14.15
2024-01-05T11:05:44.941Z,13.67
2024-01-05T11:08:34.663Z,13.61
2024-01-05T11:11:20.189Z,14.07
2024-01-05T11:13:54.061Z,14.33
2024-01-05T11:16:39.065Z,13.88
2024-01-05T11:19:28.783Z,13.68
2024-01-05T11:22:01.020Z,13.55
2024-01-05T11:24:28.886Z,13.57
2024-01-05T11:26:56.711Z,13.91
2024-01-05T11:29:46.465Z,13.84
2024-01-05T11:32:36.096Z,14.03
2024-01-05T11:35:05.923Z,14.01
2024-01-05T11:37:34.217Z,13.83
2024-01-05T11:40:02.239Z,14.41
2024-01-05T11:42:34.924Z,14.59
2024-01-05T11:45:12.583Z,14.20
2024-01-05T11:47:41.727Z,14.29
2024-01-05T11:50:28.379Z,14.82
2024-01-05T11:53:15.083Z,14.41
2024-01-05T11:55:49.595Z,14.24
2024-01-05T11:58:28.832Z,14.53
2024-01-05T12:00:57.933Z,14.22
2024-01-05T12:03:27.147Z,14.22
2024-01-05T12:06:04.538Z,14.66
2024-01-05T12:08:32.592Z,14.60
2024-01-05T12:11:06.751Z,14.08
2024-01-05T12:13:35.161Z,13.99
2024-01-05T12:16:07.535Z,14.25
2024-01-05T12:18:46.804Z,14.25
2024-01-05T12:21:19.123Z,14.26
2024-01-05T12:23:52.262Z,14.09
2024-01-05T12:26:20.269Z,14.08
2024-01-05T12:28:48.981Z,13.60
2024-01-05T12:31:16.906Z,13.24
2024-01-05T12:33:45.718Z,13.19
2024-01-05T12:36:24.175Z,12.83
2024-01-05T12:38:51.987Z,13.54
2024-01-05T12:41:21.156Z,14.04
2024-01-05T12:43:53.162Z,13.98
2024-01-05T12:46:21.316Z,14.04
2024-01-05T12:48:49.704Z,14.38
2024-01-05T12:51:21.235Z,13.27
2024-01-05T12:54:04.689Z,13.34
2024-01-05T12:56:33.982Z,13.24
2024-01-05T12:59:04.632Z,13.64
2024-01-05T13:01:32.518Z,13.49
2024-01-05T13:04:03.474Z,12.96
2024-01-05T13:06:32.041Z,12.93
2024-01-05T13:09:00.111Z,13.43
2024-01-05T13:11:28.027Z,13.03
2024-01-05T13:13:55.773Z,13.32
2024-01-05T13:16:23.668Z,13.32
2024-01-05T13:18:51.557Z,13.42
2024-01-05T13:21:19.580Z,13.25
2024-01-05T13:23:50.198Z,13.42
2024-01-05T13:26:18.015Z,13.56
2024-01-05T13:28:46.449Z,13.11
2024-01-05T13:31:14.376Z,12.92
2024-01-05T13:33:42.691Z,12.83
2024-01-05T13:36:11.317Z,12.78
2024-01-05T13:38:39.308Z,12.77
2024-01-05T13:41:07.339Z,13.18
2024-01-05T13:43:36.543Z,12.74
2024-01-05T13:46:04.827Z,12.82
2024-01-05T13:48:32.896Z,12.89
2024-01-05T13:51:00.851Z,12.94
2024-01-05T13:53:28.774Z,13.08
2024-01-05T13:55:58.575Z,13.45
2024-01-05T13:58:26.348Z,13.33
2024-01-05T14:00:54.889Z,12.83
2024-01-05T14:03:25.252Z,13.34
2024-01-05T14:05:53.219Z,13.03
2024-01-05T14:08:23.892Z,13.15
2024-01-05T14:10:52.007Z,13.37
2024-01-05T14:13:19.721Z,12.94
2024-01-05T14:15:47.649Z,13.00
2024-01-05T14:18:15.687Z,12.71
2024-01-05T14:20:43.619Z,12.97
2024-01-05T14:23:11.361Z,12.99
2024-01-05T14:25:39.215Z,12.80
2024-01-05T14:28:07.082Z,12.62
2024-01-05T14:30:34.914Z,12.64
2024-01-05T14:33:02.900Z,12.18
2024-01-05T14:35:30.680Z,10.97
2024-01-05T14:37:58.540Z,11.44
2024-01-05T14:40:26.852Z,11.86
2024-01-05T14:42:54.594Z,11.96
2024-01-05T14:45:22.432Z,12.07
2024-01-05T14:47:50.346Z,12.17
2024-01-05T14:50:18.198Z,11.96
2024-01-05T14:52:55.558Z,12.33
2024-01-05T14:55:27.776Z,11.89
2024-01-05T14:57:55.525Z,12.00
2024-01-05T15:00:23.397Z,12.03
2024-01-05T15:02:51.122Z,11.92
2024-01-05T15:05:19.041Z,12.02
2024-01-05T15:07:46.832Z,11.71
2024-01-05T15:10:14.641Z,11.49
2024-01-05T15:12:42.493Z,11.39
2024-01-05T15:15:10.992Z,11.32
2024-01-05T15:17:40.006Z,11.47
2024-01-05T15:20:09.885Z,11.66
2024-01-05T15:22:37.701Z,11.39
2024-01-05T15:25:06.092Z,11.14
2024-01-05T15:27:34.098Z,11.21
2024-01-05T15:30:01.926Z,11.02
2024-01-05T15:32:29.838Z,11.04
2024-01-05T15:34:57.596Z,10.97
2024-01-05T15:37:25.515Z,10.80
2024-01-05T15:39:54.952Z,10.69
2024-01-05T15:42:23.042Z,10.60
2024-01-05T15:44:50.796Z,10.61
2024-01-05T15:47:20.715Z,10.58
2024-01-05T15:49:48.824Z,10.60
2024-01-05T15:52:16.686Z,10.37
2024-01-05T15:54:44.447Z,10.45
2024-01-05T15:57:16.741Z,10.20
2024-01-05T15:59:44.664Z,10.28
2024-01-05T16:02:12.914Z,10.48
2024-01-05T16:04:40.725Z,9.92
2024-01-05T16:07:08.450Z,10.18
2024-01-05T16:09:36.318Z,10.01
2024-01-05T16:12:05.760Z,10.22
2024-01-05T16:14:34.055Z,9.99
2024-01-05T16:17:01.804Z,9.91
2024-01-05T16:19:29.870Z,9.83
2024-01-05T16:21:57.791Z,9.72
2024-01-05T16:24:25.600Z,9.48
2024-01-05T16:26:53.401Z,9.36
2024-01-05T16:29:21.127Z,9.13
2024-01-05T16:31:48.939Z,9.31
2024-01-05T16:34:16.964Z,9.19
2024-01-05T16:36:44.857Z,9.23
2024-01-05T16:39:12.830Z,9.03
2024-01-05T16:41:40.716Z,9.17
2024-01-05T16:44:08.480Z,9.22
2024-01-05T16:46:36.258Z,9.40
2024-01-05T16:49:05.089Z,9.38
2024-01-05T16:51:32.974Z,9.31
2024-01-05T16:54:01.018Z,8.98
2024-01-05T16:56:30.443Z,8.61
2024-01-05T16:58:58.445Z,8.68
2024-01-05T17:01:26.541Z,8.80
2024-01-05T17:03:59.019Z,8.90
2024-01-05T17:06:27.310Z,8.86
2024-01-05T17:08:55.176Z,8.76
2024-01-05T17:11:26.416Z,8.95
2024-01-05T17:13:54.901Z,9.02
2024-01-05T17:16:22.711Z,9.27
2024-01-05T17:18:52.324Z,9.18
2024-01-05T17:21:20.578Z,8.95
2024-01-05T17:23:51.928Z,9.13
2024-01-05T17:26:20.893Z,8.87
2024-01-05T17:28:48.688Z,8.87
2024-01-05T17:31:16.609Z,7.40
2024-01-05T17:33:44.689Z,7.63
2024-01-05T17:36:14.535Z,7.73
2024-01-05T17:38:42.787Z,7.18
2024-01-05T17:41:10.511Z,7.83
2024-01-05T17:43:41.357Z,8.10
2024-01-05T17:46:09.107Z,8.37
2024-01-05T17:48:37.046Z,8.28
2024-01-05T17:51:05.188Z,8.16
2024-01-05T17:53:32.937Z,8.49
2024-01-05T17:56:00.787Z,7.77
2024-01-05T17:58:28.530Z,7.87
2024-01-05T18:00:56.353Z,7.93
2024-01-05T18:03:24.276Z,7.88
2024-01-05T18:05:52.072Z,7.38
2024-01-05T18:08:19.902Z,7.48
2024-01-05T18:10:47.716Z,7.75
2024-01-05T18:13:15.612Z,7.35
2024-01-05T18:15:43.380Z,7.66
2024-01-05T18:18:11.683Z,7.51
2024-01-05T18:20:39.653Z,7.23
2024-01-05T18:23:07.534Z,7.87
2024-01-05T18:25:37.599Z,7.95
2024-01-05T18:28:07.132Z,8.04
2024-01-05T18:30:35.484Z,7.78
2024-01-05T18:33:03.512Z,7.79
2024-01-05T18:35:57.365Z,7.78
2024-01-05T18:38:25.686Z,7.46
2024-01-05T18:41:06.713Z,7.25
2024-01-05T18:44:00.695Z,7.31
2024-01-05T18:46:28.692Z,7.78
2024-01-05T18:48:56.579Z,7.82
2024-01-05T18:51:24.400Z,7.61
2024-01-05T18:53:52.241Z,7.49
2024-01-05T18:56:19.957Z,7.79
2024-01-05T18:58:47.736Z,7.67
2024-01-05T19:01:15.605Z,7.65
2024-01-05T19:03:43.514Z,7.43
2024-01-05T19:06:16.001Z,7.51
2024-01-05T19:08:44.738Z,7.31
2024-01-05T19:11:12.637Z,7.54
2024-01-05T19:13:40.580Z,7.47
2024-01-05T19:16:08.453Z,7.61
2024-01-05T19:18:36.535Z,7.29
2024-01-05T19:21:05.141Z,7.53
2024-01-05T19:23:33.325Z,6.98
2024-01-05T19:26:01.188Z,6.65
2024-01-05T19:28:29.361Z,6.87
2024-01-05T19:30:57.514Z,6.44
2024-01-05T19:33:25.853Z,7.09
2024-01-05T19:35:53.695Z,7.34
2024-01-05T19:38:21.551Z,7.14
2024-01-05T19:40:50.650Z,6.95
2024-01-05T19:43:18.399Z,6.92
2024-01-05T19:45:53.682Z,6.18
2024-01-05T19:48:25.356Z,6.34
2024-01-05T19:50:53.149Z,6.67
2024-01-05T19:53:20.943Z,6.76
2024-01-05T19:55:48.670Z,7.10
2024-01-05T19:58:16.533Z,7.09
2024-01-05T20:00:44.342Z,6.90
2024-01-05T20:03:12.291Z,6.90
2024-01-05T20:05:40.249Z,7.33
2024-01-05T20:08:08.132Z,6.12
2024-01-05T20:10:35.930Z,6.37
2024-01-05T20:13:04.647Z,7.03
2024-01-05T20:15:33.714Z,7.12
2024-01-05T20:18:04.739Z,7.11
2024-01-05T20:20:32.796Z,7.01
2024-01-05T20:23:00.572Z,7.10
2024-01-05T20:25:28.347Z,5.81
2024-01-05T20:27:56.468Z,6.50
2024-01-05T20:30:24.770Z,6.25
2024-01-05T20:32:53.277Z,5.61
2024-01-05T20:35:21.386Z,6.19
2024-01-05T20:37:49.221Z,6.02
2024-01-05T20:40:17.119Z,6.60
2024-01-05T20:42:45.014Z,5.73
2024-01-05T20:45:14.705Z,5.07
2024-01-05T20:47:42.786Z,5.98
2024-01-05T20:50:10.747Z,6.17
2024-01-05T20:52:39.186Z,6.06
2024-01-05T20:55:07.458Z,6.68
2024-01-05T20:57:36.026Z,5.90
2024-01-05T21:00:06.194Z,5.76
2024-01-05T21:02:34.082Z,6.38
2024-01-05T21:05:01.869Z,5.90
2024-01-05T21:07:29.928Z,6.01
2024-01-05T21:09:57.900Z,6.28
2024-01-05T21:12:25.792Z,5.77
2024-01-05T21:14:53.874Z,6.50
2024-01-05T21:17:21.886Z,6.71
2024-01-05T21:20:08.869Z,6.81
2024-01-05T21:22:36.717Z,6.86
2024-01-05T21:25:06.756Z,6.97
2024-01-05T21:27:34.816Z,6.89
2024-01-05T21:30:04.602Z,6.45
2024-01-05T21:32:32.561Z,7.04
2024-01-05T21:35:00.336Z,6.92
2024-01-05T21:37:28.206Z,5.90
2024-01-05T21:39:56.066Z,6.39
2024-01-05T21:42:24.469Z,6.79
2024-01-05T21:44:52.286Z,6.53
2024-01-05T21:47:20.710Z,6.51
2024-01-05T21:49:48.682Z,6.62
2024-01-05T21:52:16.506Z,6.73
2024-01-05T21:54:44.424Z,6.54
2024-01-05T21:57:12.264Z,6.83
2024-01-05T21:59:40.394Z,6.39
2024-01-05T22:02:08.344Z,6.24
2024-01-05T22:04:36.471Z,6.60
2024-01-05T22:07:04.635Z,6.62
2024-01-05T22:09:32.463Z,6.53
2024-01-05T22:12:00.239Z,6.46
2024-01-05T22:14:28.148Z,6.34
2024-01-05T22:16:56.765Z,6.53
2024-01-05T22:19:24.742Z,6.29
2024-01-05T22:21:52.622Z,6.29
2024-01-05T22:24:20.667Z,5.90
2024-01-05T22:26:48.556Z,6.12
2024-01-05T22:29:16.357Z,5.43
2024-01-05T22:31:47.273Z,6.16
2024-01-05T22:34:15.510Z,5.36
2024-01-05T22:36:43.306Z,5.23
2024-01-05T22:39:13.219Z,5.61
2024-01-05T22:41:41.164Z,5.64
2024-01-05T22:44:08.967Z,6.20
2024-01-05T22:46:37.461Z,5.77
2024-01-05T22:49:05.422Z,6.02
2024-01-05T22:51:33.424Z,6.00
2024-01-05T22:54:01.400Z,5.64
2024-01-05T22:56:29.148Z,6.03
2024-01-05T22:58:56.963Z,5.61
2024-01-05T23:01:24.777Z,5.93
2024-01-05T23:03:53.350Z,6.02
2024-01-05T23:06:23.965Z,5.93
2024-01-05T23:08:51.929Z,6.00
2024-01-05T23:11:19.622Z,5.73
2024-01-05T23:13:47.412Z,5.77
2024-01-05T23:16:15.226Z,6.00
2024-01-05T23:18:43.569Z,6.28
2024-01-05T23:21:11.969Z,6.17
2024-01-05T23:23:40.212Z,5.87
2024-01-05T23:26:17.402Z,6.23
2024-01-05T23:28:46.626Z,6.37
2024-01-05T23:31:15.779Z,6.38
2024-01-05T23:34:03.703Z,6.24
2024-01-05T23:36:37.129Z,6.47
2024-01-05T23:39:05.655Z,6.49
2024-01-05T23:41:34.482Z,6.18
2024-01-05T23:44:03.367Z,6.02
2024-01-05T23:46:32.212Z,5.98
2024-01-05T23:49:00.228Z,6.12
2024-01-05T23:51:28.118Z,6.06
2024-01-05T23:53:56.406Z,6.45
2024-01-05T23:56:24.157Z,6.31
2024-01-05T23:58:51.963Z,6.24
